This is the latest recevied weather packets stored in our database for station/object N1TKS. If no packets are shown the sender has not sent any weather packets the latest 10 day(s).
| Time | Temp. | Humidity | Pressure | Rain* | Wind** | Luminosity | Snow |
|---|---|---|---|---|---|---|---|
| 1777885401 | 10.56° C | 55% | 1013.6 hPa | 0 mm | - | - | - |
| 1777885313 | 10.56° C | 55% | 1013.6 hPa | 0 mm | - | - | - |
| 1777885018 | 10.56° C | 54% | 1013.6 hPa | 0 mm | - | - | - |
| 1777884718 | 10.56° C | 54% | 1013.5 hPa | 0 mm | - | - | - |
| 1777884554 | 10.56° C | 54% | 1013.4 hPa | 0 mm | - | - | - |
| 1777884416 | 10.56° C | 54% | 1013.5 hPa | 0 mm | - | - | - |
| 1777884113 | 10.56° C | 54% | 1013.5 hPa | 0 mm | - | - | - |
| 1777883814 | 10.56° C | 54% | 1013.5 hPa | 0 mm | - | - | - |
| 1777882913 | 10.56° C | 54% | 1013.4 hPa | 0 mm | - | - | - |
| 1777882612 | 11.11° C | 53% | 1013.4 hPa | 0 mm | - | - | - |
| 1777882313 | 11.11° C | 53% | 1013.4 hPa | 0 mm | - | - | - |
| 1777881755 | 11.11° C | 54% | 1013.2 hPa | 0 mm | - | - | - |
| 1777881714 | 11.11° C | 53% | 1013.3 hPa | 0 mm | - | - | - |
| 1777881113 | 11.11° C | 54% | 1013.2 hPa | 0 mm | - | - | - |
| 1777880856 | 11.11° C | 54% | 1013.2 hPa | 0 mm | - | - | - |
| 1777880812 | 11.11° C | 54% | 1013.2 hPa | 0 mm | - | - | - |
| 1777880517 | 10.56° C | 55% | 1013.2 hPa | 0 mm | - | - | - |
| 1777880346 | 10.56° C | 55% | 1013.2 hPa | 0 mm | - | - | - |
| 1777880216 | 10.56° C | 55% | 1013.2 hPa | 0 mm | - | - | - |
| 1777879913 | 10.56° C | 57% | 1013.1 hPa | 0 mm | - | - | - |
| 1777879016 | 8.89° C | 64% | 1013 hPa | 0 mm | - | - | - |
| 1777878788 | 6.67° C | 76% | 1013 hPa | 0 mm | - | - | - |
| 1777878780 | 6.11° C | 77% | 1013 hPa | 0 mm | - | - | - |
| 1777878713 | 7.78° C | 69% | 1013 hPa | 0 mm | - | - | - |
| 1777878113 | 6.67° C | 74% | 1013 hPa | 0 mm | - | - | - |
* Rain latest hour (hover to see other rain measurements)
** Current wind speed in m/s (hover to see current wind gust speed)